TimeEDT,TemperatureF,Dew PointF,Humidity,Sea Level PressureIn,VisibilityMPH,Wind Direction,Wind SpeedMPH,Gust SpeedMPH,PrecipitationIn,Events,Conditions,WindDirDegrees,DateUTC
12:56 AM,69.1,68.0,96,30.09,7.0,South,4.6,-,N/A,,Clear,180,2013-09-11 04:56:00
1:23 AM,69.8,68.0,94,30.05,7.0,South,3.5,-,N/A,,Scattered Clouds,180,2013-09-11 05:23:00
1:32 AM,69.8,68.0,94,30.05,7.0,South,4.6,-,N/A,,Mostly Cloudy,190,2013-09-11 05:32:00
1:56 AM,69.1,68.0,96,30.08,6.0,South,5.8,-,N/A,,Overcast,190,2013-09-11 05:56:00
2:56 AM,69.1,68.0,96,30.08,5.0,South,3.5,-,N/A,,Mostly Cloudy,190,2013-09-11 06:56:00
3:51 AM,68.0,68.0,100,30.04,3.0,Calm,Calm,-,N/A,,Scattered Clouds,0,2013-09-11 07:51:00
3:56 AM,68.0,68.0,100,30.07,3.0,Calm,Calm,-,N/A,,Partly Cloudy,0,2013-09-11 07:56:00
4:56 AM,68.0,68.0,100,30.07,4.0,SSW,4.6,-,N/A,,Clear,200,2013-09-11 08:56:00
5:56 AM,69.1,69.1,100,30.07,4.0,SW,4.6,-,N/A,,Clear,220,2013-09-11 09:56:00
6:56 AM,70.0,70.0,100,30.08,3.0,SW,5.8,-,N/A,,Clear,230,2013-09-11 10:56:00
7:14 AM,71.6,69.8,94,30.04,2.5,SW,5.8,-,N/A,,Clear,230,2013-09-11 11:14:00
7:36 AM,71.6,69.8,94,30.05,3.0,SW,8.1,-,N/A,,Clear,230,2013-09-11 11:36:00
7:56 AM,73.0,71.1,93,30.08,3.0,WSW,6.9,-,N/A,,Clear,240,2013-09-11 11:56:00
8:56 AM,78.1,73.0,84,30.08,7.0,Variable,3.5,-,N/A,,Clear,0,2013-09-11 12:56:00
9:56 AM,82.0,73.9,76,30.08,9.0,SW,5.8,-,N/A,,Clear,220,2013-09-11 13:56:00
10:56 AM,86.0,73.9,67,30.07,9.0,SW,9.2,-,N/A,,Clear,230,2013-09-11 14:56:00
11:56 AM,-9999,-9999,N/A,30.03,-9999.0,North,-9999.0,-,N/A,,Unknown,0,2013-09-11 15:56:00
12:56 PM,93.2,71.6,49,30.05,-9999.0,SW,10.4,-,N/A,,Clear,230,2013-09-11 16:56:00
2:56 PM,93.9,71.1,47,-9999,10.0,SW,11.5,-,N/A,,Clear,230,2013-09-11 18:56:00
3:56 PM,93.0,70.0,47,-9999,10.0,SW,12.7,-,N/A,,Clear,230,2013-09-11 19:56:00
4:56 PM,91.9,69.1,47,-9999,10.0,SW,10.4,-,N/A,,Clear,230,2013-09-11 20:56:00
5:56 PM,89.1,72.0,57,-9999,10.0,SSW,9.2,-,N/A,,Clear,210,2013-09-11 21:56:00
6:56 PM,84.0,73.0,69,-9999,10.0,SSW,5.8,-,N/A,,Clear,210,2013-09-11 22:56:00
7:56 PM,82.9,75.0,77,-9999,9.0,SSW,9.2,-,N/A,,Clear,210,2013-09-11 23:56:00
8:56 PM,82.0,75.0,79,-9999,8.0,SW,9.2,-,N/A,,Clear,220,2013-09-12 00:56:00
9:32 PM,80.6,73.4,79,-9999,6.0,SSW,11.5,-,N/A,Thunderstorm,Mostly Cloudy,200,2013-09-12 01:32:00
9:56 PM,80.1,73.0,79,-9999,6.0,SSW,9.2,-,N/A,Thunderstorm,Mostly Cloudy,210,2013-09-12 01:56:00
10:56 PM,81.0,64.9,58,-9999,10.0,WNW,18.4,29.9,N/A,Thunderstorm,Scattered Clouds,290,2013-09-12 02:56:00
11:56 PM,77.0,64.9,66,-9999,10.0,Calm,Calm,-,0.00,,Clear,0,2013-09-12 03:56:00